Stations météo

réclame
Mon MeteoGroup
Buresjoen, Suède (2135): Température de l'air & dewpoint: 18.01.2018 10:00:00 - 24.01.2018 10:00:00 (CET)Buresjoen, Suède (2135): Vitesse du vent & gusts: 18.01.2018 10:00:00 - 24.01.2018 10:00:00 (CET)Buresjoen, Suède (2135): Direction du vent: 18.01.2018 10:00:00 - 24.01.2018 10:00:00 (CET)Buresjoen, Suède (2135): visibility: 18.01.2018 10:00:00 - 24.01.2018 10:00:00 (CET)Buresjoen, Suède (2135): Quantités de précipitations: 18.01.2018 10:00:00 - 24.01.2018 10:00:00 (CET)
Date & Time tt [°C] td [°C] ff [km/h] ff [knt] fx [km/h] fx [knt] dd vv [km] rr [mm]
24.01.2018 10:00:00 -12,4 -13,8 3 1 6 4 NNE 4,2 0,4
24.01.2018 09:00:00 -11,7 -13,1 4 2 6 4 NNE 1,1 1,3
24.01.2018 08:00:00 -10,8 -12,1 2 1 12 6 N 0,6 2,2
24.01.2018 07:00:00 -10,1 -11,3 5 3 11 6 E 0,3 2,4
24.01.2018 06:00:00 -11,8 -13,1 0 0 6 3 N 0,8 1,4
24.01.2018 05:00:00 -12,2 -13,6 2 1 5 3 NE 0,9 1,0
24.01.2018 04:00:00 -12,7 -14,1 2 1 5 3 ENE 1,3 0,4
24.01.2018 03:00:00 -14,3 -15,7 0 0 3 2 N 0,7 0,3
24.01.2018 02:00:00 -16,5 -18,3 0 0 3 2 N 2,6 0,4
24.01.2018 01:00:00 -16,7 -18,5 0 0 2 1 N 2,0 0,1
24.01.2018 00:00:00 -17,3 -19,2 0 0 2 1 N 3,0 0,0
23.01.2018 23:00:00 -18,1 -20,0 0 0 2 1 N 3,2 0,1
23.01.2018 22:00:00 -19,1 -21,0 0 0 2 1 N 4,2 0,0
23.01.2018 21:00:00 -20,2 -22,2 0 0 2 1 N 3,5 0,0
23.01.2018 20:00:00 -21,1 -23,2 0 0 3 1 N 6 0,0
23.01.2018 19:00:00 -22,3 -24,5 0 0 3 1 N 6 0,0
23.01.2018 18:00:00 -23,2 -25,5 0 0 3 2 N 3,8 0,0
23.01.2018 17:00:00 -24,4 -26,7 0 0 2 1 N 4,5 0,0
23.01.2018 16:00:00 -27,3 -30,4 0 0 1 1 N 33 0,0
23.01.2018 15:00:00 -24,1 -26,2 0 0 0 0 N 44 0,0
23.01.2018 14:00:00 -22,1 -24,6 0 0 0 0 N 42 0,0
23.01.2018 13:00:00 -22,0 -24,5 0 0 2 1 N 42 0,0
23.01.2018 12:00:00 -22,6 -25,0 0 0 1 1 N 44 0,0
23.01.2018 11:00:00 -21,7 -24,2 0 0 0 0 N 2,2 0,0
23.01.2018 10:00:00 -21,5 -23,9 0 0 1 1 N 1,2 0,0
23.01.2018 09:00:00 -21,2 -23,5 0 0 2 1 N 2,9 0,0
23.01.2018 08:00:00 -21,5 -23,7 0 0 2 1 N 3,9 0,0
23.01.2018 07:00:00 -21,5 -23,7 0 0 1 1 N 2,6 0,0
23.01.2018 06:00:00 -21,5 -23,7 0 0 1 1 N 0,9 0,0
23.01.2018 05:00:00 -21,0 -23,3 0 0 1 1 N 2,1 0,0
23.01.2018 04:00:00 -21,2 -23,5 0 0 2 1 N 2,6 0,0
23.01.2018 03:00:00 -21,6 -23,8 0 0 1 0 N 2,0 0,0
23.01.2018 02:00:00 -21,0 -23,3 0 0 2 1 N 1,8 0,0
23.01.2018 01:00:00 -21,3 -23,5 0 0 2 1 N 3,5 0,0
23.01.2018 00:00:00 -21,7 -23,9 0 0 2 1 N 6 0,0
22.01.2018 23:00:00 -22,0 -24,2 0 0 3 1 N 6 0,0
22.01.2018 22:00:00 -23,1 -25,3 2 1 4 2 ESE 8 0,0
22.01.2018 21:00:00 -24,1 -26,6 2 1 3 2 ESE 8 0,0
22.01.2018 20:00:00 -24,7 -27,0 0 0 3 1 N 9 0,0
22.01.2018 19:00:00 -26,7 -29,4 0 0 3 2 N 10 0,0
22.01.2018 18:00:00 -26,4 -28,9 2 1 3 1 ESE 11 0,0
22.01.2018 17:00:00 -25,9 -28,6 0 0 1 1 N 4,4 0,0
22.01.2018 16:00:00 -25,2 -28,2 0 0 3 2 N 32 0,0
22.01.2018 15:00:00 -22,5 -24,7 2 1 3 2 ESE 36 0,0
22.01.2018 14:00:00 -21,0 -23,4 0 0 1 1 N 2,7 0,0
22.01.2018 13:00:00 -20,4 -22,7 0 0 1 0 N 3,0 0,0
22.01.2018 12:00:00 -19,9 -22,0 0 0 1 1 N 2,0 0,0
22.01.2018 11:00:00 -20,1 -22,4 0 0 3 1 N 3,8 0,0
22.01.2018 10:00:00 -19,9 -22,0 0 0 1 1 N 3,5 0,0
22.01.2018 09:00:00 -20,3 -22,4 0 0 1 1 N 3,8 0,0
22.01.2018 08:00:00 -21,2 -23,5 0 0 2 1 N 6 0,0
22.01.2018 07:00:00 -21,7 -23,8 0 0 2 1 N 5 0,1
22.01.2018 06:00:00 -22,7 -25,1 0 0 0 0 N 6 0,0
22.01.2018 05:00:00 -23,3 -25,6 0 0 1 1 N 2,6 0,0
22.01.2018 04:00:00 -24,0 -26,3 0 0 1 1 N 1,6 0,0
22.01.2018 03:00:00 -24,8 -27,4 0 0 3 2 N 1,5 0,0
22.01.2018 02:00:00 -26,1 -28,7 0 0 2 1 N 12 0,0
22.01.2018 01:00:00 -24,9 -27,3 0 0 1 1 N 2,0 0,0
22.01.2018 00:00:00 -25,0 -27,3 0 0 2 1 N 50 0,0
21.01.2018 23:00:00 -24,0 -26,2 0 0 1 1 N 1,3 0,0
21.01.2018 22:00:00 -23,9 -26,4 0 0 1 0 N 10 0,1
21.01.2018 21:00:00 -21,9 -23,9 0 0 3 1 N 7 0,0
21.01.2018 20:00:00 -22,0 -24,4 0 0 0 0 N 9 0,0
21.01.2018 19:00:00 -20,3 -22,4 0 0 1 1 N 3,9 0,0
21.01.2018 18:00:00 -19,3 -21,2 0 0 2 1 N 2,4 0,0
21.01.2018 17:00:00 -19,7 -21,0 0 0 0 0 N 3,0 0,0
21.01.2018 16:00:00 -18,0 -19,9 0 0 1 1 N 2,4 0,0
21.01.2018 15:00:00 -15,9 -17,6 0 0 1 1 N 2,5 0,0
21.01.2018 14:00:00 -14,7 -16,4 0 0 1 1 N 2,2 0,0
21.01.2018 13:00:00 -13,9 -15,7 0 0 2 1 N 2,3 0,0
21.01.2018 12:00:00 -13,2 -15,0 0 0 1 1 N 2,2 0,0
21.01.2018 11:00:00 -13,2 -14,9 0 0 2 1 N 2,9 0,1
21.01.2018 10:00:00 -13,4 -15,1 0 0 3 1 N 3,9 0,0
21.01.2018 09:00:00 -13,3 -15,0 0 0 2 1 N 4,8 0,0
21.01.2018 08:00:00 -13,2 -14,9 0 0 2 1 N 4,7 0,0
21.01.2018 07:00:00 -13,2 -15,0 0 0 3 2 N 14 0,0
21.01.2018 06:00:00 -13,1 -14,8 0 0 3 1 N 14 0,0
21.01.2018 05:00:00 -13,1 -14,8 0 0 3 2 N 12 0,0
21.01.2018 04:00:00 -13,3 -14,9 0 0 2 1 N 5 0,1
21.01.2018 03:00:00 -13,2 -14,9 0 0 2 1 N 7 0,0
21.01.2018 02:00:00 -13,0 -14,6 0 0 2 1 N 4,2 0,0
21.01.2018 01:00:00 -12,9 -14,5 0 0 4 2 N 5 0,0
21.01.2018 00:00:00 -12,8 -14,4 0 0 4 2 N 4,7 0,0
20.01.2018 23:00:00 -12,7 -14,3 0 0 4 2 N 3,3 0,1
20.01.2018 22:00:00 -12,6 -14,2 0 0 4 2 N 3,3 0,0
20.01.2018 21:00:00 -12,4 -14,0 0 0 4 2 N 7 0,0
20.01.2018 20:00:00 -12,2 -13,8 0 0 3 2 N 6 0,0
20.01.2018 19:00:00 -11,9 -13,5 0 0 4 2 N 4,0 0,1
20.01.2018 18:00:00 -11,6 -13,0 0 0 4 2 N 4,6 0,0
20.01.2018 17:00:00 -11,4 -12,8 2 1 5 3 NE 4,1 0,1
20.01.2018 16:00:00 -11,2 -12,7 0 0 5 3 N 5 0,2
20.01.2018 15:00:00 -10,3 -11,6 0 0 5 3 N 4,0 0,1
20.01.2018 14:00:00 -10,2 -11,7 0 0 4 2 N 2,8 0,1
20.01.2018 13:00:00 -10,1 -11,6 0 0 4 2 N 1,7 0,1
20.01.2018 12:00:00 -10,3 -11,8 2 1 5 3 E 4,1 0,1
20.01.2018 11:00:00 -10,6 -11,9 0 0 3 2 N 1,6 0,0
20.01.2018 10:00:00 -11,0 -12,3 2 1 4 2 E 2,4 0,2
20.01.2018 09:00:00 -11,3 -12,6 0 0 4 2 N 3,5 0,1
20.01.2018 08:00:00 -11,5 -12,8 2 1 5 3 E 1,9 0,1
20.01.2018 07:00:00 -11,8 -13,1 0 0 5 3 N 2,1 0,1
20.01.2018 06:00:00 -12,3 -13,7 3 1 5 3 E 6 0,2
20.01.2018 05:00:00 -12,7 -14,1 0 0 5 3 N 1,1 0,3
20.01.2018 04:00:00 -13,0 -14,4 3 2 6 3 E 1,6 0,4
20.01.2018 03:00:00 -13,2 -14,8 3 1 8 4 E 2,0 0,1
20.01.2018 02:00:00 -13,5 -15,1 4 2 6 4 E 2,1 0,1
20.01.2018 01:00:00 -13,5 -15,1 4 2 7 4 ESE 2,7 0,1
20.01.2018 00:00:00 -14,0 -15,6 3 2 5 3 E 2,2 0,1
19.01.2018 23:00:00 -14,4 -15,9 2 1 5 3 ENE 3,0 0,0
19.01.2018 22:00:00 -14,7 -16,2 3 1 4 2 E 1,7 0,0
19.01.2018 21:00:00 -14,7 -16,4 0 0 6 3 N 1,3 0,0
19.01.2018 20:00:00 -14,1 -15,7 4 2 6 3 ESE 2,0 0,0
19.01.2018 19:00:00 -15,3 -17,0 0 0 4 2 N 2,4 0,0
19.01.2018 18:00:00 -15,6 -17,1 2 1 4 2 ENE 2,5 0,0
19.01.2018 17:00:00 -16,2 -17,9 3 2 6 3 E 2,6 0,0
19.01.2018 16:00:00 -16,3 -18,1 0 0 3 2 N 1,7 0,1
19.01.2018 15:00:00 -16,5 -18,3 3 1 4 2 ESE 1,7 0,0
19.01.2018 14:00:00 -15,9 -17,7 0 0 3 1 N 2,5 0,0
19.01.2018 13:00:00 -15,8 -17,6 2 1 4 2 N 2,3 0,1
19.01.2018 12:00:00 -15,4 -17,1 0 0 3 2 N 1,7 0,0
19.01.2018 11:00:00 -15,9 -17,8 0 0 4 2 N 2,2 0,1
19.01.2018 10:00:00 -15,5 -17,3 0 0 3 2 N 1,9 0,1
19.01.2018 09:00:00 -15,6 -17,3 0 0 3 2 N 1,5 0,1
19.01.2018 08:00:00 -15,8 -17,6 0 0 3 1 N 1,3 0,3
19.01.2018 07:00:00 -16,0 -17,7 0 0 5 3 N 2,0 0,1
19.01.2018 06:00:00 -15,5 -17,0 3 2 4 2 N 6 0,1
19.01.2018 05:00:00 -15,1 -16,9 0 0 4 2 N 2,1 0,1
19.01.2018 04:00:00 -14,8 -16,5 0 0 5 3 N 3,2 0,0
19.01.2018 03:00:00 -14,7 -16,5 3 2 7 4 N 3,5 0,1
19.01.2018 02:00:00 -14,5 -16,2 3 2 8 5 NNE 3,6 0,1
19.01.2018 01:00:00 -14,0 -15,7 6 3 9 5 NNE 6 0,1
19.01.2018 00:00:00 -13,5 -15,2 4 2 8 5 NNE 2,6 0,1
18.01.2018 23:00:00 -13,4 -15,4 4 2 10 6 NNE 33 0,0
18.01.2018 22:00:00 -13,0 -14,8 4 2 12 6 NNE 3,8 0,1
18.01.2018 21:00:00 -13,1 -14,8 6 3 14 8 NE 2,5 0,1
18.01.2018 20:00:00 -13,0 -14,7 5 3 13 7 NE 2,7 0,0
18.01.2018 19:00:00 -13,1 -14,9 6 3 13 7 NE 4,2 0,0
18.01.2018 18:00:00 -13,0 -14,8 7 4 12 7 NE 2,9 0,1
18.01.2018 17:00:00 -12,9 -14,6 4 2 11 6 ENE 1,5 0,1
18.01.2018 16:00:00 -12,9 -14,6 5 3 13 7 ENE 2,2 0,0
18.01.2018 15:00:00 -12,5 -14,1 5 3 11 6 ENE 1,4 0,2
18.01.2018 14:00:00 -12,7 -14,1 4 2 9 5 ENE 3,1 0,0
18.01.2018 13:00:00 -11,8 -13,4 4 2 8 4 ENE 5 0,0
18.01.2018 12:00:00 -12,1 -13,7 3 2 9 5 ENE 6 0,1
18.01.2018 11:00:00 -13,1 -14,7 3 2 6 3 ENE 2,0 0,1
18.01.2018 10:00:00 -13,6 -15,2 0 0 7 4 N 0,9 0,1

tt = Température de l'air
td = dewpoint
ff = Vitesse du vent
fx = gusts
dd = Direction du vent
vv = visibility
rr = Quantités de précipitations

stations d'obs. à proximité